Terminal Aerodrome Forecast
Issued by NWS

Home | Current Version | Previous Version | Text Only | Print | Product List | Glossary On
Versions: 1 2 3 4 5 6 7 8 9 10 11 12 13 14 15 16 17 18 19 20 21 22 23 24 25 26 27 28 29 30 31 32 33 34 35 36 37
000
FTUS45 KPSR 271120
TAFIWA
TAFIWA
TAF
KIWA 271120Z 2712/2812 14005KT P6SM BKN250
      TEMPO 2717/2720 17008KT
     FM272000 26008KT P6SM BKN250
     FM280700 12005KT P6SM SCT250
      AMD LTD TO CLD VIS AND WIND TIL 271300=

USA.gov is the U.S. government's official web portal to all federal, state and local government web resources and services.